Chrysanthemum — C6XO4 — position and weather

sailwx.info

Track history (hours):
 
Tides and Currents Weather Stations Pressure Air Temp Water Temp Dewpoint Dewpoint Depression Visibility Wind Speed Wind Dir Waves Ship Positions

Chrysanthemum

Last reported at 2017-Apr-27 02:50 UTC. Time now 2017-Apr-27 03:28 UTC.
Position N 52°08' E 003°38'.

Length 244 m; draft 7.8 m.

Type: Ship. MMSI: 311015300.

Date/timePositionNaut miles runAvg speedWind from/ knotsBaromVisibWave heightAir tempDewpointWater temp
2017-Apr-27 02:50N 52°08' E 003°38'0 0.0
2017-Apr-27 02:23N 52°08' E 003°38'0 0.0
2017-Apr-27 01:56N 52°08' E 003°38'0 0.1
2017-Apr-27 00:11N 52°08' E 003°38'0 0.1
2017-Apr-26 23:59N 52°08' E 003°38'0 0.1
2017-Apr-26 23:29N 52°08' E 003°38'0 0.1
2017-Apr-26 22:53N 52°08' E 003°38'0 0.1
2017-Apr-26 22:29N 52°08' E 003°38'0 0.0
2017-Apr-26 21:59N 52°08' E 003°38'0 0.0
2017-Apr-26 21:29N 52°08' E 003°38'0 0.0
2017-Apr-26 20:53N 52°08' E 003°38'0 0.0
2017-Apr-26 20:23N 52°08' E 003°38'0 0.0
2017-Apr-26 19:47N 52°08' E 003°38'0 0.0
2017-Apr-26 19:17N 52°08' E 003°38'0 0.0
2017-Apr-26 18:50N 52°08' E 003°38'0 0.1
2017-Apr-26 18:17N 52°08' E 003°38'0 0.0
2017-Apr-26 17:53N 52°08' E 003°38'0 0.0
2017-Apr-26 17:26N 52°08' E 003°38'0 0.1
2017-Apr-26 15:50N 52°08' E 003°38'0 0.1
2017-Apr-26 14:02N 52°08' E 003°38'0 0.1
2017-Apr-26 12:26N 52°08' E 003°38'0 0.1
2017-Apr-26 11:32N 52°08' E 003°38'0 0.1
2017-Apr-26 11:26N 52°08' E 003°38'0 0.0
2017-Apr-26 10:50N 52°08' E 003°38'0 0.1
2017-Apr-26 10:17N 52°08' E 003°38'0 0.0
2017-Apr-26 09:59N 52°08' E 003°38'0 0.1
2017-Apr-26 09:23N 52°08' E 003°38'0 0.0
2017-Apr-26 08:59N 52°08' E 003°38'0 0.0
2017-Apr-26 08:29N 52°08' E 003°38'0 0.1
2017-Apr-26 07:56N 52°08' E 003°38'0 0.0
2017-Apr-26 07:23N 52°08' E 003°38'0 0.1
2017-Apr-26 06:14N 52°08' E 003°38'0 0.1
2017-Apr-26 05:59N 52°08' E 003°38'0 0.1
2017-Apr-26 05:26N 52°08' E 003°38'0 0.0
2017-Apr-26 03:47N 52°08' E 003°38'0 0.3
2017-Apr-26 03:26N 52°08' E 003°38'0 0.0
2017-Apr-26 02:56N 52°08' E 003°38'0 0.0
2017-Apr-26 02:08N 52°08' E 003°38'0 0.1
2017-Apr-26 00:56N 52°08' E 003°38'0 0.1
2017-Apr-25 23:32N 52°08' E 003°38'0 0.0
2017-Apr-25 23:08N 52°08' E 003°38'0 0.1
2017-Apr-25 22:59N 52°08' E 003°38'0 0.0
2017-Apr-25 22:23N 52°08' E 003°38'0 0.1
2017-Apr-25 21:50N 52°08' E 003°38'0 0.1
2017-Apr-25 21:29N 52°08' E 003°38'0 0.0
2017-Apr-25 19:53N 52°08' E 003°38'0 0.0
2017-Apr-25 19:23N 52°08' E 003°38'0 0.0
2017-Apr-25 18:56N 52°08' E 003°38'0 0.1
2017-Apr-25 18:20N 52°08' E 003°38'0 0.0
2017-Apr-25 17:56N 52°08' E 003°38'0 0.1
2017-Apr-25 17:29N 52°08' E 003°38'0 0.1
2017-Apr-25 16:59N 52°08' E 003°38'0 0.1
2017-Apr-25 16:29N 52°08' E 003°38'0 0.1
2017-Apr-25 15:59N 52°08' E 003°38'0 0.0
2017-Apr-25 15:29N 52°08' E 003°38'0 0.0
2017-Apr-25 14:59N 52°08' E 003°38'0 0.0
2017-Apr-25 14:26N 52°08' E 003°38'0 0.1
2017-Apr-25 13:28N 52°08' E 003°38'1 1.9
2017-Apr-25 12:59N 52°07' E 003°38'4 8.0
2017-Apr-25 12:30N 52°05' E 003°44'5 9.0
2017-Apr-25 12:00N 52°04' E 003°51'4 8.9
2017-Apr-25 11:30N 52°03' E 003°57'2 3.5
2017-Apr-25 11:00N 52°01' E 003°57'510.0
2017-Apr-25 10:30N 51°59' E 004°04'1 2.3
2017-Apr-25 10:00N 51°58' E 004°03'2 3.9
2017-Apr-25 09:31N 51°58' E 003°60'0 0.5
2017-Apr-25 08:58N 51°58' E 003°59'0 0.0
2017-Apr-25 08:28N 51°58' E 003°59'0 0.0
2017-Apr-25 07:58N 51°58' E 003°59'0 0.0
2017-Apr-25 07:28N 51°58' E 003°59'0 0.0
2017-Apr-25 06:58N 51°58' E 003°59'0 0.0
2017-Apr-25 06:25N 51°58' E 003°59'0 0.0
2017-Apr-25 05:58N 51°58' E 003°59'0 0.0
2017-Apr-25 05:28N 51°58' E 003°59'0 0.0
2017-Apr-25 04:58N 51°58' E 003°59'0 0.0
2017-Apr-25 04:25N 51°58' E 003°59'0 0.0
2017-Apr-25 03:58N 51°58' E 003°59'0 0.0
2017-Apr-25 03:25N 51°58' E 003°59'0 0.0
2017-Apr-25 02:58N 51°58' E 003°59'0 0.0
2017-Apr-25 02:28N 51°58' E 003°59'0 0.0
2017-Apr-25 01:58N 51°58' E 003°59'0 0.0
2017-Apr-25 01:28N 51°58' E 003°59'0 0.0
2017-Apr-25 00:58N 51°58' E 003°59'0 0.0
2017-Apr-25 00:28N 51°58' E 003°59'0 0.0
2017-Apr-24 23:58N 51°58' E 003°59'0 0.0
2017-Apr-24 23:28N 51°58' E 003°59'0 0.0
2017-Apr-24 22:55N 51°58' E 003°59'0 0.0
2017-Apr-24 22:28N 51°58' E 003°59'0 0.0
2017-Apr-24 21:58N 51°58' E 003°59'0 0.0
2017-Apr-24 21:28N 51°58' E 003°59'0 0.0
2017-Apr-24 20:58N 51°58' E 003°59'0 0.0
2017-Apr-24 20:25N 51°58' E 003°59'0 0.0
2017-Apr-24 19:58N 51°58' E 003°59'0 0.0
2017-Apr-24 19:28N 51°58' E 003°59'0 0.0
2017-Apr-24 18:55N 51°58' E 003°59'0 0.0
2017-Apr-24 18:28N 51°58' E 003°59'0 0.0
2017-Apr-24 17:59N 51°58' E 003°59'0 0.0
2017-Apr-24 17:28N 51°58' E 003°59'0 0.0
2017-Apr-24 16:52N 51°58' E 003°59'0 0.0
2017-Apr-24 16:28N 51°58' E 003°59'0 0.0
2017-Apr-24 15:58N 51°58' E 003°59'0 0.0
2017-Apr-24 15:28N 51°58' E 003°59'0 0.0
2017-Apr-24 14:58N 51°58' E 003°59'0 0.0
2017-Apr-24 14:25N 51°58' E 003°59'0 0.0
2017-Apr-24 13:25N 51°58' E 003°59'0 0.0
2017-Apr-24 12:58N 51°58' E 003°59'0 0.0
2017-Apr-24 12:28N 51°58' E 003°59'0 0.0
2017-Apr-24 11:43N 51°58' E 003°59'0 0.0
2017-Apr-24 11:28N 51°58' E 003°59'0 0.0
2017-Apr-24 10:55N 51°58' E 003°59'0 0.0
2017-Apr-24 10:28N 51°58' E 003°59'0 0.0
2017-Apr-24 09:58N 51°58' E 003°59'0 0.0
2017-Apr-24 09:28N 51°58' E 003°59'0 0.0
2017-Apr-24 08:55N 51°58' E 003°59'0 0.0
2017-Apr-24 08:28N 51°58' E 003°59'0 0.0
2017-Apr-24 07:46N 51°58' E 003°59'0 0.0
2017-Apr-24 07:28N 51°58' E 003°59'0 0.0
2017-Apr-24 06:58N 51°58' E 003°59'0 0.0
2017-Apr-24 06:28N 51°58' E 003°59'0 0.0
2017-Apr-24 05:58N 51°58' E 003°59'0 0.0
2017-Apr-24 05:28N 51°58' E 003°59'0 0.0
2017-Apr-24 04:58N 51°58' E 003°59'0 0.0
2017-Apr-24 04:28N 51°58' E 003°59'0 0.0
2017-Apr-24 03:58N 51°58' E 003°59'0 0.0
2017-Apr-24 03:22N 51°58' E 003°59'0 0.0
2017-Apr-24 02:58N 51°58' E 003°59'0 0.0
2017-Apr-24 02:28N 51°58' E 003°59'0 0.0
2017-Apr-24 01:58N 51°58' E 003°59'0 0.0
2017-Apr-24 01:25N 51°58' E 003°59'0 0.0
2017-Apr-24 00:49N 51°58' E 003°59'0 0.0
2017-Apr-24 00:28N 51°58' E 003°59'0 0.0
2017-Apr-23 23:58N 51°58' E 003°59'0 0.0
2017-Apr-23 23:28N 51°58' E 003°59'0 0.0
2017-Apr-23 22:49N 51°58' E 003°59'0 0.0
2017-Apr-23 22:25N 51°58' E 003°59'0 0.0
2017-Apr-23 21:58N 51°58' E 003°59'0 0.0
2017-Apr-23 21:25N 51°58' E 003°59'0 0.0
2017-Apr-23 20:55N 51°58' E 003°59'0 0.0
2017-Apr-23 20:28N 51°58' E 003°59'0 0.0
2017-Apr-23 19:52N 51°58' E 003°59'0 0.0
2017-Apr-23 19:28N 51°58' E 003°59'0 0.0
2017-Apr-23 18:58N 51°58' E 003°59'0 0.0
2017-Apr-23 18:22N 51°58' E 003°59'0 0.0
2017-Apr-23 17:58N 51°58' E 003°59'0 0.0
2017-Apr-23 17:28N 51°58' E 003°59'0 0.0
2017-Apr-23 16:58N 51°58' E 003°59'0 0.0
2017-Apr-23 16:25N 51°58' E 003°59'0 0.0
2017-Apr-23 15:58N 51°58' E 003°59'0 0.0
2017-Apr-23 15:28N 51°58' E 003°59'0 0.0
2017-Apr-23 14:58N 51°58' E 003°59'0 0.0
2017-Apr-23 13:59N 51°58' E 003°59'0 0.0
2017-Apr-23 13:25N 51°58' E 003°59'0 0.0
2017-Apr-23 12:58N 51°58' E 003°59'0 0.0
2017-Apr-23 12:28N 51°58' E 003°59'0 0.0
2017-Apr-23 11:58N 51°58' E 003°59'0 0.0
2017-Apr-23 11:28N 51°58' E 003°59'0 0.0
2017-Apr-23 10:55N 51°58' E 003°59'0 0.0
2017-Apr-23 10:25N 51°58' E 003°59'0 0.0
2017-Apr-23 09:58N 51°58' E 003°59'0 0.0
2017-Apr-23 09:22N 51°58' E 003°59'0 0.0
2017-Apr-23 08:58N 51°58' E 003°59'0 0.0
2017-Apr-23 08:16N 51°58' E 003°59'0 0.0
2017-Apr-23 07:58N 51°58' E 003°59'0 0.0
2017-Apr-23 07:28N 51°58' E 003°59'0 0.0
2017-Apr-23 06:58N 51°58' E 003°59'0 0.0
2017-Apr-23 06:28N 51°58' E 003°59'0 0.0
2017-Apr-23 05:40N 51°58' E 003°59'0 0.0
2017-Apr-23 05:28N 51°58' E 003°59'0 0.0
2017-Apr-23 04:55N 51°58' E 003°59'0 0.0
2017-Apr-23 04:19N 51°58' E 003°59'0 0.0
2017-Apr-23 03:58N 51°58' E 003°59'0 0.0
2017-Apr-23 03:28N 51°58' E 003°59'0 0.0
2017-Apr-23 02:58N 51°58' E 003°59'0 0.0
2017-Apr-23 02:28N 51°58' E 003°59'0 0.0
2017-Apr-23 01:58N 51°58' E 003°59'0 0.0
2017-Apr-23 01:28N 51°58' E 003°59'0 0.0
2017-Apr-23 00:58N 51°58' E 003°59'0 0.0
2017-Apr-23 00:28N 51°58' E 003°59'0 0.0
2017-Apr-22 23:58N 51°58' E 003°59'0 0.0
2017-Apr-22 23:28N 51°58' E 003°59'0 0.0
2017-Apr-22 22:58N 51°58' E 003°59'0 0.0
2017-Apr-22 22:22N 51°58' E 003°59'0 0.0
2017-Apr-22 21:58N 51°58' E 003°59'0 0.0
2017-Apr-22 21:28N 51°58' E 003°59'0 0.0
2017-Apr-22 20:52N 51°58' E 003°59'0 0.0
2017-Apr-22 20:25N 51°58' E 003°59'0 0.0
2017-Apr-22 19:58N 51°58' E 003°59'0 0.0
2017-Apr-22 19:28N 51°58' E 003°59'0 0.0
2017-Apr-22 18:52N 51°58' E 003°59'0 0.0
2017-Apr-22 18:16N 51°58' E 003°59'0 0.0
2017-Apr-22 17:52N 51°58' E 003°59'0 0.0
2017-Apr-22 17:28N 51°58' E 003°59'0 0.0
2017-Apr-22 16:40N 51°58' E 003°59'0 0.0
2017-Apr-22 16:22N 51°58' E 003°59'0 0.0
2017-Apr-22 15:58N 51°58' E 003°59'0 0.0
2017-Apr-22 15:28N 51°58' E 003°59'0 0.0
2017-Apr-22 14:58N 51°58' E 003°59'0 0.0
2017-Apr-22 14:28N 51°58' E 003°59'0 0.0
2017-Apr-22 13:28N 51°58' E 003°59'0 0.0
2017-Apr-22 12:49N 51°58' E 003°59'0 0.0
2017-Apr-22 12:22N 51°58' E 003°59'0 0.0
2017-Apr-22 11:55N 51°58' E 003°59'0 0.0
2017-Apr-22 11:22N 51°58' E 003°59'0 0.0
2017-Apr-22 10:58N 51°58' E 003°59'0 0.0
2017-Apr-22 10:28N 51°58' E 003°59'0 0.0
2017-Apr-22 09:58N 51°58' E 003°59'0 0.0
2017-Apr-22 09:28N 51°58' E 003°59'0 0.0
2017-Apr-22 08:58N 51°58' E 003°59'0 0.0
2017-Apr-22 08:28N 51°58' E 003°59'0 0.0
2017-Apr-22 07:58N 51°58' E 003°59'0 0.0
2017-Apr-22 07:25N 51°58' E 003°59'0 0.0
2017-Apr-22 06:58N 51°58' E 003°59'0 0.0
2017-Apr-22 06:28N 51°58' E 003°59'0 0.0
2017-Apr-22 05:58N 51°58' E 003°59'0 0.0
2017-Apr-22 05:25N 51°58' E 003°59'0 0.0
2017-Apr-22 04:55N 51°58' E 003°59'0 0.0
2017-Apr-22 04:22N 51°58' E 003°59'0 0.0
2017-Apr-22 03:58N 51°58' E 003°59'0 0.0
2017-Apr-22 03:28N 51°58' E 003°59'0 0.0
2017-Apr-22 02:58N 51°58' E 003°59'0 0.0
2017-Apr-22 02:28N 51°58' E 003°59'0 0.0
2017-Apr-22 01:58N 51°58' E 003°59'0 0.0
2017-Apr-22 01:28N 51°58' E 003°59'0 0.0
2017-Apr-22 00:58N 51°58' E 003°59'0 0.0
2017-Apr-22 00:28N 51°58' E 003°59'0 0.0
2017-Apr-21 23:58N 51°58' E 003°59'0 0.0
2017-Apr-21 23:07N 51°58' E 003°59'0 0.0
2017-Apr-21 22:58N 51°58' E 003°59'0 0.0
2017-Apr-21 22:22N 51°58' E 003°59'0 0.0
2017-Apr-21 21:58N 51°58' E 003°59'0 0.0
2017-Apr-21 21:28N 51°58' E 003°59'0 0.0
2017-Apr-21 20:58N 51°58' E 003°59'0 0.0
2017-Apr-21 20:22N 51°58' E 003°59'0 0.0
2017-Apr-21 19:58N 51°58' E 003°59'0 0.0
2017-Apr-21 19:28N 51°58' E 003°59'0 0.0
2017-Apr-21 18:55N 51°58' E 003°59'0 0.0
2017-Apr-21 18:28N 51°58' E 003°59'0 0.0
2017-Apr-21 17:58N 51°58' E 003°59'0 0.0
2017-Apr-21 17:28N 51°58' E 003°59'0 0.0
2017-Apr-21 16:55N 51°58' E 003°59'0 0.0
2017-Apr-21 16:25N 51°58' E 003°59'0 0.0
2017-Apr-21 15:55N 51°58' E 003°59'0 0.0
2017-Apr-21 15:28N 51°58' E 003°59'0 0.0
2017-Apr-21 14:58N 51°58' E 003°59'0 0.0
2017-Apr-21 14:28N 51°58' E 003°59'0 0.0
2017-Apr-21 13:28N 51°58' E 003°59'0 0.0
2017-Apr-21 12:58N 51°58' E 003°59'0 0.0
2017-Apr-21 12:28N 51°58' E 003°59'0 0.0
2017-Apr-21 11:58N 51°58' E 003°59'0 0.0
2017-Apr-21 11:28N 51°58' E 003°59'0 0.0
2017-Apr-21 10:55N 51°58' E 003°59'0 0.0
2017-Apr-21 10:28N 51°58' E 003°59'0 0.0
2017-Apr-21 09:55N 51°58' E 003°59'0 0.0
2017-Apr-21 09:28N 51°58' E 003°59'0 0.0
2017-Apr-21 08:55N 51°58' E 003°59'0 0.0
2017-Apr-21 08:25N 51°58' E 003°59'0 0.0
2017-Apr-21 07:43N 51°58' E 003°59'0 0.0
2017-Apr-21 07:22N 51°58' E 003°59'0 0.0
2017-Apr-21 06:58N 51°58' E 003°59'0 0.0
2017-Apr-21 06:28N 51°58' E 003°59'0 0.0
2017-Apr-21 05:58N 51°58' E 003°59'0 0.0
2017-Apr-21 05:28N 51°58' E 003°59'0 0.0
2017-Apr-21 04:58N 51°58' E 003°59'0 0.0
2017-Apr-21 04:19N 51°58' E 003°59'0 0.0
2017-Apr-21 03:58N 51°58' E 003°59'0 0.0
2017-Apr-21 03:25N 51°58' E 003°59'0 0.0
2017-Apr-21 02:58N 51°58' E 003°59'0 0.0
2017-Apr-21 02:25N 51°58' E 003°59'0 0.0
2017-Apr-21 01:58N 51°58' E 003°59'0 0.0
2017-Apr-21 01:28N 51°58' E 003°59'0 0.0
2017-Apr-21 00:58N 51°58' E 003°59'0 0.0
2017-Apr-21 00:28N 51°58' E 003°59'0 0.0
2017-Apr-20 23:58N 51°58' E 003°59'0 0.0
2017-Apr-20 23:25N 51°58' E 003°59'0 0.0
2017-Apr-20 22:58N 51°58' E 003°59'0 0.0
2017-Apr-20 22:25N 51°58' E 003°59'0 0.0
2017-Apr-20 21:58N 51°58' E 003°59'0 0.0
2017-Apr-20 21:28N 51°58' E 003°59'0 0.0
2017-Apr-20 20:46N 51°58' E 003°59'0 0.0
2017-Apr-20 20:25N 51°58' E 003°59'0 0.0
2017-Apr-20 19:58N 51°58' E 003°59'0 0.0
2017-Apr-20 19:13N 51°58' E 003°59'0 0.0
2017-Apr-20 18:58N 51°58' E 003°59'0 0.0
2017-Apr-20 18:28N 51°58' E 003°59'0 0.0
2017-Apr-20 17:55N 51°58' E 003°59'0 0.0
2017-Apr-20 17:28N 51°58' E 003°59'0 0.0
2017-Apr-20 16:58N 51°58' E 003°59'0 0.0
2017-Apr-20 16:25N 51°58' E 003°59'0 0.0
2017-Apr-20 15:58N 51°58' E 003°59'0 0.0
2017-Apr-20 15:25N 51°58' E 003°59'0 0.0
2017-Apr-20 14:58N 51°58' E 003°59'0 0.0
2017-Apr-20 13:58N 51°58' E 003°59'0 0.0
2017-Apr-20 13:28N 51°58' E 003°59'0 0.0
2017-Apr-20 12:58N 51°58' E 003°59'0 0.0
2017-Apr-20 12:28N 51°58' E 003°59'0 0.0
2017-Apr-20 11:52N 51°58' E 003°59'0 0.0
2017-Apr-20 11:28N 51°58' E 003°59'0 0.0
2017-Apr-20 10:55N 51°58' E 003°59'0 0.0
2017-Apr-20 10:28N 51°58' E 003°59'0 0.0
2017-Apr-20 09:52N 51°58' E 003°59'0 0.0
2017-Apr-20 09:28N 51°58' E 003°59'0 0.0
2017-Apr-20 08:52N 51°58' E 003°59'0 0.0
2017-Apr-20 08:28N 51°58' E 003°59'0 0.0
2017-Apr-20 07:58N 51°58' E 003°59'0 0.0
2017-Apr-20 07:28N 51°58' E 003°59'0 0.0
2017-Apr-20 06:58N 51°58' E 003°59'0 0.0
2017-Apr-20 06:28N 51°58' E 003°59'0 0.0
2017-Apr-20 05:55N 51°58' E 003°59'0 0.0
2017-Apr-20 05:28N 51°58' E 003°59'0 0.0
2017-Apr-20 04:58N 51°58' E 003°59'0 0.0
2017-Apr-20 04:28N 51°58' E 003°59'0 0.0
2017-Apr-20 03:58N 51°58' E 003°59'0 0.0
2017-Apr-20 03:28N 51°58' E 003°59'0 0.0
2017-Apr-20 02:55N 51°58' E 003°59'0 0.0
2017-Apr-20 02:28N 51°58' E 003°59'0 0.0
2017-Apr-20 01:58N 51°58' E 003°59'0 0.0
2017-Apr-20 01:28N 51°58' E 003°59'0 0.0
2017-Apr-20 00:55N 51°58' E 003°59'0 0.0
2017-Apr-20 00:28N 51°58' E 003°59'0 0.0
2017-Apr-19 23:55N 51°58' E 003°59'0 0.0
2017-Apr-19 23:22N 51°58' E 003°59'0 0.0
2017-Apr-19 22:58N 51°58' E 003°59'0 0.0
2017-Apr-19 22:28N 51°58' E 003°59'0 0.0
2017-Apr-19 21:58N 51°58' E 003°59'0 0.0
2017-Apr-19 21:28N 51°58' E 003°59'0 0.0
2017-Apr-19 20:58N 51°58' E 003°59'0 0.0
2017-Apr-19 20:28N 51°58' E 003°59'0 0.0
2017-Apr-19 19:55N 51°58' E 003°59'0 0.0
2017-Apr-19 19:22N 51°58' E 003°59'0 0.0
2017-Apr-19 18:58N 51°58' E 003°59'0 0.0
2017-Apr-19 18:22N 51°58' E 003°59'0 0.0
2017-Apr-19 17:58N 51°58' E 003°59'0 0.0
2017-Apr-19 17:28N 51°58' E 003°59'0 0.0
2017-Apr-19 16:58N 51°58' E 003°59'0 0.0
2017-Apr-19 16:28N 51°58' E 003°59'0 0.0
2017-Apr-19 15:58N 51°58' E 003°59'0 0.0
2017-Apr-19 15:28N 51°58' E 003°59'0 0.0
2017-Apr-19 14:58N 51°58' E 003°59'0 0.0
2017-Apr-19 14:28N 51°58' E 003°59'0 0.0
2017-Apr-19 13:25N 51°58' E 003°59'0 0.0
2017-Apr-19 12:58N 51°58' E 003°59'0 0.0
2017-Apr-19 12:28N 51°58' E 003°59'0 0.0
2017-Apr-19 11:58N 51°58' E 003°59'0 0.0
2017-Apr-19 11:28N 51°58' E 003°59'0 0.0
2017-Apr-19 10:55N 51°58' E 003°59'0 0.0
2017-Apr-19 10:28N 51°58' E 003°59'0 0.0
2017-Apr-19 09:58N 51°58' E 003°59'0 0.0
2017-Apr-19 09:28N 51°58' E 003°59'0 0.0
2017-Apr-19 08:58N 51°58' E 003°59'0 0.0
2017-Apr-19 08:25N 51°58' E 003°59'0 0.0
2017-Apr-19 07:58N 51°58' E 003°59'0 0.0
2017-Apr-19 07:28N 51°58' E 003°59'0 0.0
2017-Apr-19 06:58N 51°58' E 003°59'0 0.0
2017-Apr-19 06:28N 51°58' E 003°59'0 0.0
2017-Apr-19 05:58N 51°58' E 003°59'0 0.0
2017-Apr-19 05:28N 51°58' E 003°59'0 0.0
2017-Apr-19 04:58N 51°58' E 003°59'0 0.0
2017-Apr-19 04:28N 51°58' E 003°59'0 0.0
2017-Apr-19 03:58N 51°58' E 003°59'0 0.0
2017-Apr-19 03:28N 51°58' E 003°59'0 0.0
2017-Apr-19 02:52N 51°58' E 003°59'0 0.0
2017-Apr-19 02:28N 51°58' E 003°59'0 0.0
2017-Apr-19 01:58N 51°58' E 003°59'0 0.0
2017-Apr-19 01:28N 51°58' E 003°59'0 0.0
2017-Apr-19 00:55N 51°58' E 003°59'0 0.0
2017-Apr-19 00:25N 51°58' E 003°59'0 0.0
2017-Apr-18 23:55N 51°58' E 003°59'0 0.0
2017-Apr-18 23:28N 51°58' E 003°59'0 0.0
2017-Apr-18 22:58N 51°58' E 003°59'0 0.0
2017-Apr-18 22:28N 51°58' E 003°59'0 0.0
2017-Apr-18 21:58N 51°58' E 003°59'0 0.0
2017-Apr-18 21:22N 51°58' E 003°59'0 0.0
2017-Apr-18 20:55N 51°58' E 003°59'0 0.0
2017-Apr-18 20:22N 51°58' E 003°59'0 0.0
2017-Apr-18 19:58N 51°58' E 003°59'0 0.0
2017-Apr-18 19:25N 51°58' E 003°59'0 0.0
2017-Apr-18 18:58N 51°58' E 003°59'0 0.0
2017-Apr-18 18:25N 51°58' E 003°59'0 0.0
2017-Apr-18 17:55N 51°58' E 003°59'0 0.0
2017-Apr-18 17:28N 51°58' E 003°59'0 0.0
2017-Apr-18 16:58N 51°58' E 003°59'0 0.0
2017-Apr-18 16:28N 51°58' E 003°59'0 0.0
2017-Apr-18 15:58N 51°58' E 003°59'0 0.0
2017-Apr-18 15:25N 51°58' E 003°59'0 0.0
2017-Apr-18 14:58N 51°58' E 003°59'0 0.0
2017-Apr-18 14:25N 51°58' E 003°59'0 0.0
2017-Apr-18 13:28N 51°58' E 003°59'0 0.0
2017-Apr-18 12:58N 51°58' E 003°59'0 0.0
2017-Apr-18 12:28N 51°58' E 003°59'0 0.0
2017-Apr-18 11:58N 51°58' E 003°59'0 0.0
2017-Apr-18 11:28N 51°58' E 003°59'0 0.0
2017-Apr-18 10:58N 51°58' E 003°59'0 0.0
2017-Apr-18 10:28N 51°58' E 003°59'0 0.0
2017-Apr-18 09:58N 51°58' E 003°59'0 0.0
2017-Apr-18 09:28N 51°58' E 003°59'0 0.0
2017-Apr-18 08:58N 51°58' E 003°59'0 0.0
2017-Apr-18 08:28N 51°58' E 003°59'0 0.0
2017-Apr-18 07:58N 51°58' E 003°59'0 0.0
2017-Apr-18 07:28N 51°58' E 003°59'0 0.0
2017-Apr-18 06:55N 51°58' E 003°59'0 0.0
2017-Apr-18 06:28N 51°58' E 003°59'0 0.0
2017-Apr-18 05:58N 51°58' E 003°59'0 0.0
2017-Apr-18 05:22N 51°58' E 003°59'0 0.0
2017-Apr-18 04:55N 51°58' E 003°59'0 0.0
2017-Apr-18 04:28N 51°58' E 003°59'0 0.0
2017-Apr-18 03:58N 51°58' E 003°59'0 0.0
2017-Apr-18 03:28N 51°58' E 003°59'0 0.0
2017-Apr-18 02:58N 51°58' E 003°59'0 0.0
2017-Apr-18 02:25N 51°58' E 003°59'0 0.0
2017-Apr-18 01:58N 51°58' E 003°59'0 0.0
2017-Apr-18 01:25N 51°58' E 003°59'0 0.0
2017-Apr-18 00:55N 51°58' E 003°59'0 0.0
2017-Apr-18 00:28N 51°58' E 003°59'0 0.0
2017-Apr-17 23:52N 51°58' E 003°59'0 0.0
2017-Apr-17 23:28N 51°58' E 003°59'0 0.0
2017-Apr-17 22:58N 51°58' E 003°59'0 0.0
2017-Apr-17 22:22N 51°58' E 003°59'0 0.0
2017-Apr-17 21:55N 51°58' E 003°59'0 0.0
2017-Apr-17 21:28N 51°58' E 003°59'0 0.0
2017-Apr-17 20:58N 51°58' E 003°59'0 0.0
2017-Apr-17 20:28N 51°58' E 003°59'0 0.0
2017-Apr-17 19:40N 51°58' E 003°59'0 0.0
2017-Apr-17 19:28N 51°58' E 003°59'0 0.0
2017-Apr-17 18:58N 51°58' E 003°59'0 0.0
2017-Apr-17 18:13N 51°58' E 003°59'0 0.0
2017-Apr-17 17:43N 51°58' E 003°59'0 0.0
2017-Apr-17 17:28N 51°58' E 003°59'0 0.0
2017-Apr-17 16:58N 51°58' E 003°59'0 0.0
2017-Apr-17 16:28N 51°58' E 003°59'0 0.0
2017-Apr-17 15:58N 51°58' E 003°59'0 0.0
2017-Apr-17 15:28N 51°58' E 003°59'0 0.0
2017-Apr-17 14:55N 51°58' E 003°59'0 0.0
2017-Apr-17 13:58N 51°58' E 003°59'0 0.0
2017-Apr-17 13:25N 51°58' E 003°59'0 0.0
2017-Apr-17 12:58N 51°58' E 003°59'0 0.0
2017-Apr-17 12:28N 51°58' E 003°59'0 0.0
2017-Apr-17 11:58N 51°58' E 003°59'0 0.0
2017-Apr-17 11:28N 51°58' E 003°59'0 0.0
2017-Apr-17 10:55N 51°58' E 003°59'0 0.0
2017-Apr-17 10:28N 51°58' E 003°59'0 0.0
2017-Apr-17 09:55N 51°58' E 003°59'0 0.0
2017-Apr-17 09:28N 51°58' E 003°59'0 0.0
2017-Apr-17 08:58N 51°58' E 003°59'0 0.0
2017-Apr-17 08:28N 51°58' E 003°59'0 0.0
2017-Apr-17 07:52N 51°58' E 003°59'0 0.0
2017-Apr-17 07:28N 51°58' E 003°59'0 0.0
2017-Apr-17 06:58N 51°58' E 003°59'0 0.0
2017-Apr-17 06:28N 51°58' E 003°59'0 0.0
2017-Apr-17 05:58N 51°58' E 003°59'0 0.0
2017-Apr-17 05:28N 51°58' E 003°59'0 0.0
2017-Apr-17 04:58N 51°58' E 003°59'0 0.0
2017-Apr-17 04:25N 51°58' E 003°59'0 0.0
2017-Apr-17 03:58N 51°58' E 003°59'0 0.0
2017-Apr-17 03:25N 51°58' E 003°59'0 0.0
2017-Apr-17 02:58N 51°58' E 003°59'  
Track history (hours):
 
Tides and Currents Weather Stations Pressure Air Temp Water Temp Dewpoint Dewpoint Depression Visibility Wind Speed Wind Dir Waves Ship Positions

Chrysanthemum

Last reported at 2017-Apr-27 02:50 UTC. Time now 2017-Apr-27 03:28 UTC.
Position N 52°08' E 003°38'.

Length 244 m; draft 7.8 m.

Type: Ship. MMSI: 311015300.

Date/timePositionNaut miles runAvg speedWind from/ knotsBaromVisibWave heightAir tempDewpointWater temp
2017-Apr-27 02:50N 52°08' E 003°38'0 0.0
2017-Apr-27 02:23N 52°08' E 003°38'0 0.0
2017-Apr-27 01:56N 52°08' E 003°38'0 0.1
2017-Apr-27 00:11N 52°08' E 003°38'0 0.1
2017-Apr-26 23:59N 52°08' E 003°38'0 0.1
2017-Apr-26 23:29N 52°08' E 003°38'0 0.1
2017-Apr-26 22:53N 52°08' E 003°38'0 0.1
2017-Apr-26 22:29N 52°08' E 003°38'0 0.0
2017-Apr-26 21:59N 52°08' E 003°38'0 0.0
2017-Apr-26 21:29N 52°08' E 003°38'0 0.0
2017-Apr-26 20:53N 52°08' E 003°38'0 0.0
2017-Apr-26 20:23N 52°08' E 003°38'0 0.0
2017-Apr-26 19:47N 52°08' E 003°38'0 0.0
2017-Apr-26 19:17N 52°08' E 003°38'0 0.0
2017-Apr-26 18:50N 52°08' E 003°38'0 0.1
2017-Apr-26 18:17N 52°08' E 003°38'0 0.0
2017-Apr-26 17:53N 52°08' E 003°38'0 0.0
2017-Apr-26 17:26N 52°08' E 003°38'0 0.1
2017-Apr-26 15:50N 52°08' E 003°38'0 0.1
2017-Apr-26 14:02N 52°08' E 003°38'0 0.1
2017-Apr-26 12:26N 52°08' E 003°38'0 0.1
2017-Apr-26 11:32N 52°08' E 003°38'0 0.1
2017-Apr-26 11:26N 52°08' E 003°38'0 0.0
2017-Apr-26 10:50N 52°08' E 003°38'0 0.1
2017-Apr-26 10:17N 52°08' E 003°38'0 0.0
2017-Apr-26 09:59N 52°08' E 003°38'0 0.1
2017-Apr-26 09:23N 52°08' E 003°38'0 0.0
2017-Apr-26 08:59N 52°08' E 003°38'0 0.0
2017-Apr-26 08:29N 52°08' E 003°38'0 0.1
2017-Apr-26 07:56N 52°08' E 003°38'0 0.0
2017-Apr-26 07:23N 52°08' E 003°38'0 0.1
2017-Apr-26 06:14N 52°08' E 003°38'0 0.1
2017-Apr-26 05:59N 52°08' E 003°38'0 0.1
2017-Apr-26 05:26N 52°08' E 003°38'0 0.0
2017-Apr-26 03:47N 52°08' E 003°38'0 0.3
2017-Apr-26 03:26N 52°08' E 003°38'0 0.0
2017-Apr-26 02:56N 52°08' E 003°38'0 0.0
2017-Apr-26 02:08N 52°08' E 003°38'0 0.1
2017-Apr-26 00:56N 52°08' E 003°38'0 0.1
2017-Apr-25 23:32N 52°08' E 003°38'0 0.0
2017-Apr-25 23:08N 52°08' E 003°38'0 0.1
2017-Apr-25 22:59N 52°08' E 003°38'0 0.0
2017-Apr-25 22:23N 52°08' E 003°38'0 0.1
2017-Apr-25 21:50N 52°08' E 003°38'0 0.1
2017-Apr-25 21:29N 52°08' E 003°38'0 0.0
2017-Apr-25 19:53N 52°08' E 003°38'0 0.0
2017-Apr-25 19:23N 52°08' E 003°38'0 0.0
2017-Apr-25 18:56N 52°08' E 003°38'0 0.1
2017-Apr-25 18:20N 52°08' E 003°38'0 0.0
2017-Apr-25 17:56N 52°08' E 003°38'0 0.1
2017-Apr-25 17:29N 52°08' E 003°38'0 0.1
2017-Apr-25 16:59N 52°08' E 003°38'0 0.1
2017-Apr-25 16:29N 52°08' E 003°38'0 0.1
2017-Apr-25 15:59N 52°08' E 003°38'0 0.0
2017-Apr-25 15:29N 52°08' E 003°38'0 0.0
2017-Apr-25 14:59N 52°08' E 003°38'0 0.0
2017-Apr-25 14:26N 52°08' E 003°38'0 0.1
2017-Apr-25 13:28N 52°08' E 003°38'1 1.9
2017-Apr-25 12:59N 52°07' E 003°38'4 8.0
2017-Apr-25 12:30N 52°05' E 003°44'5 9.0
2017-Apr-25 12:00N 52°04' E 003°51'4 8.9
2017-Apr-25 11:30N 52°03' E 003°57'2 3.5
2017-Apr-25 11:00N 52°01' E 003°57'510.0
2017-Apr-25 10:30N 51°59' E 004°04'1 2.3
2017-Apr-25 10:00N 51°58' E 004°03'2 3.9
2017-Apr-25 09:31N 51°58' E 003°60'0 0.5
2017-Apr-25 08:58N 51°58' E 003°59'0 0.0
2017-Apr-25 08:28N 51°58' E 003°59'0 0.0
2017-Apr-25 07:58N 51°58' E 003°59'0 0.0
2017-Apr-25 07:28N 51°58' E 003°59'0 0.0
2017-Apr-25 06:58N 51°58' E 003°59'0 0.0
2017-Apr-25 06:25N 51°58' E 003°59'0 0.0
2017-Apr-25 05:58N 51°58' E 003°59'0 0.0
2017-Apr-25 05:28N 51°58' E 003°59'0 0.0
2017-Apr-25 04:58N 51°58' E 003°59'0 0.0
2017-Apr-25 04:25N 51°58' E 003°59'0 0.0
2017-Apr-25 03:58N 51°58' E 003°59'0 0.0
2017-Apr-25 03:25N 51°58' E 003°59'0 0.0
2017-Apr-25 02:58N 51°58' E 003°59'0 0.0
2017-Apr-25 02:28N 51°58' E 003°59'0 0.0
2017-Apr-25 01:58N 51°58' E 003°59'0 0.0
2017-Apr-25 01:28N 51°58' E 003°59'0 0.0
2017-Apr-25 00:58N 51°58' E 003°59'0 0.0
2017-Apr-25 00:28N 51°58' E 003°59'0 0.0
2017-Apr-24 23:58N 51°58' E 003°59'0 0.0
2017-Apr-24 23:28N 51°58' E 003°59'0 0.0
2017-Apr-24 22:55N 51°58' E 003°59'0 0.0
2017-Apr-24 22:28N 51°58' E 003°59'0 0.0
2017-Apr-24 21:58N 51°58' E 003°59'0 0.0
2017-Apr-24 21:28N 51°58' E 003°59'0 0.0
2017-Apr-24 20:58N 51°58' E 003°59'0 0.0
2017-Apr-24 20:25N 51°58' E 003°59'0 0.0
2017-Apr-24 19:58N 51°58' E 003°59'0 0.0
2017-Apr-24 19:28N 51°58' E 003°59'0 0.0
2017-Apr-24 18:55N 51°58' E 003°59'0 0.0
2017-Apr-24 18:28N 51°58' E 003°59'0 0.0
2017-Apr-24 17:59N 51°58' E 003°59'0 0.0
2017-Apr-24 17:28N 51°58' E 003°59'0 0.0
2017-Apr-24 16:52N 51°58' E 003°59'0 0.0
2017-Apr-24 16:28N 51°58' E 003°59'0 0.0
2017-Apr-24 15:58N 51°58' E 003°59'0 0.0
2017-Apr-24 15:28N 51°58' E 003°59'0 0.0
2017-Apr-24 14:58N 51°58' E 003°59'0 0.0
2017-Apr-24 14:25N 51°58' E 003°59'0 0.0
2017-Apr-24 13:25N 51°58' E 003°59'0 0.0
2017-Apr-24 12:58N 51°58' E 003°59'0 0.0
2017-Apr-24 12:28N 51°58' E 003°59'0 0.0
2017-Apr-24 11:43N 51°58' E 003°59'0 0.0
2017-Apr-24 11:28N 51°58' E 003°59'0 0.0
2017-Apr-24 10:55N 51°58' E 003°59'0 0.0
2017-Apr-24 10:28N 51°58' E 003°59'0 0.0
2017-Apr-24 09:58N 51°58' E 003°59'0 0.0
2017-Apr-24 09:28N 51°58' E 003°59'0 0.0
2017-Apr-24 08:55N 51°58' E 003°59'0 0.0
2017-Apr-24 08:28N 51°58' E 003°59'0 0.0
2017-Apr-24 07:46N 51°58' E 003°59'0 0.0
2017-Apr-24 07:28N 51°58' E 003°59'0 0.0
2017-Apr-24 06:58N 51°58' E 003°59'0 0.0
2017-Apr-24 06:28N 51°58' E 003°59'0 0.0
2017-Apr-24 05:58N 51°58' E 003°59'0 0.0
2017-Apr-24 05:28N 51°58' E 003°59'0 0.0
2017-Apr-24 04:58N 51°58' E 003°59'0 0.0
2017-Apr-24 04:28N 51°58' E 003°59'0 0.0
2017-Apr-24 03:58N 51°58' E 003°59'0 0.0
2017-Apr-24 03:22N 51°58' E 003°59'0 0.0
2017-Apr-24 02:58N 51°58' E 003°59'0 0.0
2017-Apr-24 02:28N 51°58' E 003°59'0 0.0
2017-Apr-24 01:58N 51°58' E 003°59'0 0.0
2017-Apr-24 01:25N 51°58' E 003°59'0 0.0
2017-Apr-24 00:49N 51°58' E 003°59'0 0.0
2017-Apr-24 00:28N 51°58' E 003°59'0 0.0
2017-Apr-23 23:58N 51°58' E 003°59'0 0.0
2017-Apr-23 23:28N 51°58' E 003°59'0 0.0
2017-Apr-23 22:49N 51°58' E 003°59'0 0.0
2017-Apr-23 22:25N 51°58' E 003°59'0 0.0
2017-Apr-23 21:58N 51°58' E 003°59'0 0.0
2017-Apr-23 21:25N 51°58' E 003°59'0 0.0
2017-Apr-23 20:55N 51°58' E 003°59'0 0.0
2017-Apr-23 20:28N 51°58' E 003°59'0 0.0
2017-Apr-23 19:52N 51°58' E 003°59'0 0.0
2017-Apr-23 19:28N 51°58' E 003°59'0 0.0
2017-Apr-23 18:58N 51°58' E 003°59'0 0.0
2017-Apr-23 18:22N 51°58' E 003°59'0 0.0
2017-Apr-23 17:58N 51°58' E 003°59'0 0.0
2017-Apr-23 17:28N 51°58' E 003°59'0 0.0
2017-Apr-23 16:58N 51°58' E 003°59'0 0.0
2017-Apr-23 16:25N 51°58' E 003°59'0 0.0
2017-Apr-23 15:58N 51°58' E 003°59'0 0.0
2017-Apr-23 15:28N 51°58' E 003°59'0 0.0
2017-Apr-23 14:58N 51°58' E 003°59'0 0.0
2017-Apr-23 13:59N 51°58' E 003°59'0 0.0
2017-Apr-23 13:25N 51°58' E 003°59'0 0.0
2017-Apr-23 12:58N 51°58' E 003°59'0 0.0
2017-Apr-23 12:28N 51°58' E 003°59'0 0.0
2017-Apr-23 11:58N 51°58' E 003°59'0 0.0
2017-Apr-23 11:28N 51°58' E 003°59'0 0.0
2017-Apr-23 10:55N 51°58' E 003°59'0 0.0
2017-Apr-23 10:25N 51°58' E 003°59'0 0.0
2017-Apr-23 09:58N 51°58' E 003°59'0 0.0
2017-Apr-23 09:22N 51°58' E 003°59'0 0.0
2017-Apr-23 08:58N 51°58' E 003°59'0 0.0
2017-Apr-23 08:16N 51°58' E 003°59'0 0.0
2017-Apr-23 07:58N 51°58' E 003°59'0 0.0
2017-Apr-23 07:28N 51°58' E 003°59'0 0.0
2017-Apr-23 06:58N 51°58' E 003°59'0 0.0
2017-Apr-23 06:28N 51°58' E 003°59'0 0.0
2017-Apr-23 05:40N 51°58' E 003°59'0 0.0
2017-Apr-23 05:28N 51°58' E 003°59'0 0.0
2017-Apr-23 04:55N 51°58' E 003°59'0 0.0
2017-Apr-23 04:19N 51°58' E 003°59'0 0.0
2017-Apr-23 03:58N 51°58' E 003°59'0 0.0
2017-Apr-23 03:28N 51°58' E 003°59'0 0.0
2017-Apr-23 02:58N 51°58' E 003°59'0 0.0
2017-Apr-23 02:28N 51°58' E 003°59'0 0.0
2017-Apr-23 01:58N 51°58' E 003°59'0 0.0
2017-Apr-23 01:28N 51°58' E 003°59'0 0.0
2017-Apr-23 00:58N 51°58' E 003°59'0 0.0
2017-Apr-23 00:28N 51°58' E 003°59'0 0.0
2017-Apr-22 23:58N 51°58' E 003°59'0 0.0
2017-Apr-22 23:28N 51°58' E 003°59'0 0.0
2017-Apr-22 22:58N 51°58' E 003°59'0 0.0
2017-Apr-22 22:22N 51°58' E 003°59'0 0.0
2017-Apr-22 21:58N 51°58' E 003°59'0 0.0
2017-Apr-22 21:28N 51°58' E 003°59'0 0.0
2017-Apr-22 20:52N 51°58' E 003°59'0 0.0
2017-Apr-22 20:25N 51°58' E 003°59'0 0.0
2017-Apr-22 19:58N 51°58' E 003°59'0 0.0
2017-Apr-22 19:28N 51°58' E 003°59'0 0.0
2017-Apr-22 18:52N 51°58' E 003°59'0 0.0
2017-Apr-22 18:16N 51°58' E 003°59'0 0.0
2017-Apr-22 17:52N 51°58' E 003°59'0 0.0
2017-Apr-22 17:28N 51°58' E 003°59'0 0.0
2017-Apr-22 16:40N 51°58' E 003°59'0 0.0
2017-Apr-22 16:22N 51°58' E 003°59'0 0.0
2017-Apr-22 15:58N 51°58' E 003°59'0 0.0
2017-Apr-22 15:28N 51°58' E 003°59'0 0.0
2017-Apr-22 14:58N 51°58' E 003°59'0 0.0
2017-Apr-22 14:28N 51°58' E 003°59'0 0.0
2017-Apr-22 13:28N 51°58' E 003°59'0 0.0
2017-Apr-22 12:49N 51°58' E 003°59'0 0.0
2017-Apr-22 12:22N 51°58' E 003°59'0 0.0
2017-Apr-22 11:55N 51°58' E 003°59'0 0.0
2017-Apr-22 11:22N 51°58' E 003°59'0 0.0
2017-Apr-22 10:58N 51°58' E 003°59'0 0.0
2017-Apr-22 10:28N 51°58' E 003°59'0 0.0
2017-Apr-22 09:58N 51°58' E 003°59'0 0.0
2017-Apr-22 09:28N 51°58' E 003°59'0 0.0
2017-Apr-22 08:58N 51°58' E 003°59'0 0.0
2017-Apr-22 08:28N 51°58' E 003°59'0 0.0
2017-Apr-22 07:58N 51°58' E 003°59'0 0.0
2017-Apr-22 07:25N 51°58' E 003°59'0 0.0
2017-Apr-22 06:58N 51°58' E 003°59'0 0.0
2017-Apr-22 06:28N 51°58' E 003°59'0 0.0
2017-Apr-22 05:58N 51°58' E 003°59'0 0.0
2017-Apr-22 05:25N 51°58' E 003°59'0 0.0
2017-Apr-22 04:55N 51°58' E 003°59'0 0.0
2017-Apr-22 04:22N 51°58' E 003°59'0 0.0
2017-Apr-22 03:58N 51°58' E 003°59'0 0.0
2017-Apr-22 03:28N 51°58' E 003°59'0 0.0
2017-Apr-22 02:58N 51°58' E 003°59'0 0.0
2017-Apr-22 02:28N 51°58' E 003°59'0 0.0
2017-Apr-22 01:58N 51°58' E 003°59'0 0.0
2017-Apr-22 01:28N 51°58' E 003°59'0 0.0
2017-Apr-22 00:58N 51°58' E 003°59'0 0.0
2017-Apr-22 00:28N 51°58' E 003°59'0 0.0
2017-Apr-21 23:58N 51°58' E 003°59'0 0.0
2017-Apr-21 23:07N 51°58' E 003°59'0 0.0
2017-Apr-21 22:58N 51°58' E 003°59'0 0.0
2017-Apr-21 22:22N 51°58' E 003°59'0 0.0
2017-Apr-21 21:58N 51°58' E 003°59'0 0.0
2017-Apr-21 21:28N 51°58' E 003°59'0 0.0
2017-Apr-21 20:58N 51°58' E 003°59'0 0.0
2017-Apr-21 20:22N 51°58' E 003°59'0 0.0
2017-Apr-21 19:58N 51°58' E 003°59'0 0.0
2017-Apr-21 19:28N 51°58' E 003°59'0 0.0
2017-Apr-21 18:55N 51°58' E 003°59'0 0.0
2017-Apr-21 18:28N 51°58' E 003°59'0 0.0
2017-Apr-21 17:58N 51°58' E 003°59'0 0.0
2017-Apr-21 17:28N 51°58' E 003°59'0 0.0
2017-Apr-21 16:55N 51°58' E 003°59'0 0.0
2017-Apr-21 16:25N 51°58' E 003°59'0 0.0
2017-Apr-21 15:55N 51°58' E 003°59'0 0.0
2017-Apr-21 15:28N 51°58' E 003°59'0 0.0
2017-Apr-21 14:58N 51°58' E 003°59'0 0.0
2017-Apr-21 14:28N 51°58' E 003°59'0 0.0
2017-Apr-21 13:28N 51°58' E 003°59'0 0.0
2017-Apr-21 12:58N 51°58' E 003°59'0 0.0
2017-Apr-21 12:28N 51°58' E 003°59'0 0.0
2017-Apr-21 11:58N 51°58' E 003°59'0 0.0
2017-Apr-21 11:28N 51°58' E 003°59'0 0.0
2017-Apr-21 10:55N 51°58' E 003°59'0 0.0
2017-Apr-21 10:28N 51°58' E 003°59'0 0.0
2017-Apr-21 09:55N 51°58' E 003°59'0 0.0
2017-Apr-21 09:28N 51°58' E 003°59'0 0.0
2017-Apr-21 08:55N 51°58' E 003°59'0 0.0
2017-Apr-21 08:25N 51°58' E 003°59'0 0.0
2017-Apr-21 07:43N 51°58' E 003°59'0 0.0
2017-Apr-21 07:22N 51°58' E 003°59'0 0.0
2017-Apr-21 06:58N 51°58' E 003°59'0 0.0
2017-Apr-21 06:28N 51°58' E 003°59'0 0.0
2017-Apr-21 05:58N 51°58' E 003°59'0 0.0
2017-Apr-21 05:28N 51°58' E 003°59'0 0.0
2017-Apr-21 04:58N 51°58' E 003°59'0 0.0
2017-Apr-21 04:19N 51°58' E 003°59'0 0.0
2017-Apr-21 03:58N 51°58' E 003°59'0 0.0
2017-Apr-21 03:25N 51°58' E 003°59'0 0.0
2017-Apr-21 02:58N 51°58' E 003°59'0 0.0
2017-Apr-21 02:25N 51°58' E 003°59'0 0.0
2017-Apr-21 01:58N 51°58' E 003°59'0 0.0
2017-Apr-21 01:28N 51°58' E 003°59'0 0.0
2017-Apr-21 00:58N 51°58' E 003°59'0 0.0
2017-Apr-21 00:28N 51°58' E 003°59'0 0.0
2017-Apr-20 23:58N 51°58' E 003°59'0 0.0
2017-Apr-20 23:25N 51°58' E 003°59'0 0.0
2017-Apr-20 22:58N 51°58' E 003°59'0 0.0
2017-Apr-20 22:25N 51°58' E 003°59'0 0.0
2017-Apr-20 21:58N 51°58' E 003°59'0 0.0
2017-Apr-20 21:28N 51°58' E 003°59'0 0.0
2017-Apr-20 20:46N 51°58' E 003°59'0 0.0
2017-Apr-20 20:25N 51°58' E 003°59'0 0.0
2017-Apr-20 19:58N 51°58' E 003°59'0 0.0
2017-Apr-20 19:13N 51°58' E 003°59'0 0.0
2017-Apr-20 18:58N 51°58' E 003°59'0 0.0
2017-Apr-20 18:28N 51°58' E 003°59'0 0.0
2017-Apr-20 17:55N 51°58' E 003°59'0 0.0
2017-Apr-20 17:28N 51°58' E 003°59'0 0.0
2017-Apr-20 16:58N 51°58' E 003°59'0 0.0
2017-Apr-20 16:25N 51°58' E 003°59'0 0.0
2017-Apr-20 15:58N 51°58' E 003°59'0 0.0
2017-Apr-20 15:25N 51°58' E 003°59'0 0.0
2017-Apr-20 14:58N 51°58' E 003°59'0 0.0
2017-Apr-20 13:58N 51°58' E 003°59'0 0.0
2017-Apr-20 13:28N 51°58' E 003°59'0 0.0
2017-Apr-20 12:58N 51°58' E 003°59'0 0.0
2017-Apr-20 12:28N 51°58' E 003°59'0 0.0
2017-Apr-20 11:52N 51°58' E 003°59'0 0.0
2017-Apr-20 11:28N 51°58' E 003°59'0 0.0
2017-Apr-20 10:55N 51°58' E 003°59'0 0.0
2017-Apr-20 10:28N 51°58' E 003°59'0 0.0
2017-Apr-20 09:52N 51°58' E 003°59'0 0.0
2017-Apr-20 09:28N 51°58' E 003°59'0 0.0
2017-Apr-20 08:52N 51°58' E 003°59'0 0.0
2017-Apr-20 08:28N 51°58' E 003°59'0 0.0
2017-Apr-20 07:58N 51°58' E 003°59'0 0.0
2017-Apr-20 07:28N 51°58' E 003°59'0 0.0
2017-Apr-20 06:58N 51°58' E 003°59'0 0.0
2017-Apr-20 06:28N 51°58' E 003°59'0 0.0
2017-Apr-20 05:55N 51°58' E 003°59'0 0.0
2017-Apr-20 05:28N 51°58' E 003°59'0 0.0
2017-Apr-20 04:58N 51°58' E 003°59'0 0.0
2017-Apr-20 04:28N 51°58' E 003°59'0 0.0
2017-Apr-20 03:58N 51°58' E 003°59'0 0.0
2017-Apr-20 03:28N 51°58' E 003°59'0 0.0
2017-Apr-20 02:55N 51°58' E 003°59'0 0.0
2017-Apr-20 02:28N 51°58' E 003°59'0 0.0
2017-Apr-20 01:58N 51°58' E 003°59'0 0.0
2017-Apr-20 01:28N 51°58' E 003°59'0 0.0
2017-Apr-20 00:55N 51°58' E 003°59'0 0.0
2017-Apr-20 00:28N 51°58' E 003°59'0 0.0
2017-Apr-19 23:55N 51°58' E 003°59'0 0.0
2017-Apr-19 23:22N 51°58' E 003°59'0 0.0
2017-Apr-19 22:58N 51°58' E 003°59'0 0.0
2017-Apr-19 22:28N 51°58' E 003°59'0 0.0
2017-Apr-19 21:58N 51°58' E 003°59'0 0.0
2017-Apr-19 21:28N 51°58' E 003°59'0 0.0
2017-Apr-19 20:58N 51°58' E 003°59'0 0.0
2017-Apr-19 20:28N 51°58' E 003°59'0 0.0
2017-Apr-19 19:55N 51°58' E 003°59'0 0.0
2017-Apr-19 19:22N 51°58' E 003°59'0 0.0
2017-Apr-19 18:58N 51°58' E 003°59'0 0.0
2017-Apr-19 18:22N 51°58' E 003°59'0 0.0
2017-Apr-19 17:58N 51°58' E 003°59'0 0.0
2017-Apr-19 17:28N 51°58' E 003°59'0 0.0
2017-Apr-19 16:58N 51°58' E 003°59'0 0.0
2017-Apr-19 16:28N 51°58' E 003°59'0 0.0
2017-Apr-19 15:58N 51°58' E 003°59'0 0.0
2017-Apr-19 15:28N 51°58' E 003°59'0 0.0
2017-Apr-19 14:58N 51°58' E 003°59'0 0.0
2017-Apr-19 14:28N 51°58' E 003°59'0 0.0
2017-Apr-19 13:25N 51°58' E 003°59'0 0.0
2017-Apr-19 12:58N 51°58' E 003°59'0 0.0
2017-Apr-19 12:28N 51°58' E 003°59'0 0.0
2017-Apr-19 11:58N 51°58' E 003°59'0 0.0
2017-Apr-19 11:28N 51°58' E 003°59'0 0.0
2017-Apr-19 10:55N 51°58' E 003°59'0 0.0
2017-Apr-19 10:28N 51°58' E 003°59'0 0.0
2017-Apr-19 09:58N 51°58' E 003°59'0 0.0
2017-Apr-19 09:28N 51°58' E 003°59'0 0.0
2017-Apr-19 08:58N 51°58' E 003°59'0 0.0
2017-Apr-19 08:25N 51°58' E 003°59'0 0.0
2017-Apr-19 07:58N 51°58' E 003°59'0 0.0
2017-Apr-19 07:28N 51°58' E 003°59'0 0.0
2017-Apr-19 06:58N 51°58' E 003°59'0 0.0
2017-Apr-19 06:28N 51°58' E 003°59'0 0.0
2017-Apr-19 05:58N 51°58' E 003°59'0 0.0
2017-Apr-19 05:28N 51°58' E 003°59'0 0.0
2017-Apr-19 04:58N 51°58' E 003°59'0 0.0
2017-Apr-19 04:28N 51°58' E 003°59'0 0.0
2017-Apr-19 03:58N 51°58' E 003°59'0 0.0
2017-Apr-19 03:28N 51°58' E 003°59'0 0.0
2017-Apr-19 02:52N 51°58' E 003°59'0 0.0
2017-Apr-19 02:28N 51°58' E 003°59'0 0.0
2017-Apr-19 01:58N 51°58' E 003°59'0 0.0
2017-Apr-19 01:28N 51°58' E 003°59'0 0.0
2017-Apr-19 00:55N 51°58' E 003°59'0 0.0
2017-Apr-19 00:25N 51°58' E 003°59'0 0.0
2017-Apr-18 23:55N 51°58' E 003°59'0 0.0
2017-Apr-18 23:28N 51°58' E 003°59'0 0.0
2017-Apr-18 22:58N 51°58' E 003°59'0 0.0
2017-Apr-18 22:28N 51°58' E 003°59'0 0.0
2017-Apr-18 21:58N 51°58' E 003°59'0 0.0
2017-Apr-18 21:22N 51°58' E 003°59'0 0.0
2017-Apr-18 20:55N 51°58' E 003°59'0 0.0
2017-Apr-18 20:22N 51°58' E 003°59'0 0.0
2017-Apr-18 19:58N 51°58' E 003°59'0 0.0
2017-Apr-18 19:25N 51°58' E 003°59'0 0.0
2017-Apr-18 18:58N 51°58' E 003°59'0 0.0
2017-Apr-18 18:25N 51°58' E 003°59'0 0.0
2017-Apr-18 17:55N 51°58' E 003°59'0 0.0
2017-Apr-18 17:28N 51°58' E 003°59'0 0.0
2017-Apr-18 16:58N 51°58' E 003°59'0 0.0
2017-Apr-18 16:28N 51°58' E 003°59'0 0.0
2017-Apr-18 15:58N 51°58' E 003°59'0 0.0
2017-Apr-18 15:25N 51°58' E 003°59'0 0.0
2017-Apr-18 14:58N 51°58' E 003°59'0 0.0
2017-Apr-18 14:25N 51°58' E 003°59'0 0.0
2017-Apr-18 13:28N 51°58' E 003°59'0 0.0
2017-Apr-18 12:58N 51°58' E 003°59'0 0.0
2017-Apr-18 12:28N 51°58' E 003°59'0 0.0
2017-Apr-18 11:58N 51°58' E 003°59'0 0.0
2017-Apr-18 11:28N 51°58' E 003°59'0 0.0
2017-Apr-18 10:58N 51°58' E 003°59'0 0.0
2017-Apr-18 10:28N 51°58' E 003°59'0 0.0
2017-Apr-18 09:58N 51°58' E 003°59'0 0.0
2017-Apr-18 09:28N 51°58' E 003°59'0 0.0
2017-Apr-18 08:58N 51°58' E 003°59'0 0.0
2017-Apr-18 08:28N 51°58' E 003°59'0 0.0
2017-Apr-18 07:58N 51°58' E 003°59'0 0.0
2017-Apr-18 07:28N 51°58' E 003°59'0 0.0
2017-Apr-18 06:55N 51°58' E 003°59'0 0.0
2017-Apr-18 06:28N 51°58' E 003°59'0 0.0
2017-Apr-18 05:58N 51°58' E 003°59'0 0.0
2017-Apr-18 05:22N 51°58' E 003°59'0 0.0
2017-Apr-18 04:55N 51°58' E 003°59'0 0.0
2017-Apr-18 04:28N 51°58' E 003°59'0 0.0
2017-Apr-18 03:58N 51°58' E 003°59'0 0.0
2017-Apr-18 03:28N 51°58' E 003°59'0 0.0
2017-Apr-18 02:58N 51°58' E 003°59'0 0.0
2017-Apr-18 02:25N 51°58' E 003°59'0 0.0
2017-Apr-18 01:58N 51°58' E 003°59'0 0.0
2017-Apr-18 01:25N 51°58' E 003°59'0 0.0
2017-Apr-18 00:55N 51°58' E 003°59'0 0.0
2017-Apr-18 00:28N 51°58' E 003°59'0 0.0
2017-Apr-17 23:52N 51°58' E 003°59'0 0.0
2017-Apr-17 23:28N 51°58' E 003°59'0 0.0
2017-Apr-17 22:58N 51°58' E 003°59'0 0.0
2017-Apr-17 22:22N 51°58' E 003°59'0 0.0
2017-Apr-17 21:55N 51°58' E 003°59'0 0.0
2017-Apr-17 21:28N 51°58' E 003°59'0 0.0
2017-Apr-17 20:58N 51°58' E 003°59'0 0.0
2017-Apr-17 20:28N 51°58' E 003°59'0 0.0
2017-Apr-17 19:40N 51°58' E 003°59'0 0.0
2017-Apr-17 19:28N 51°58' E 003°59'0 0.0
2017-Apr-17 18:58N 51°58' E 003°59'0 0.0
2017-Apr-17 18:13N 51°58' E 003°59'0 0.0
2017-Apr-17 17:43N 51°58' E 003°59'0 0.0
2017-Apr-17 17:28N 51°58' E 003°59'0 0.0
2017-Apr-17 16:58N 51°58' E 003°59'0 0.0
2017-Apr-17 16:28N 51°58' E 003°59'0 0.0
2017-Apr-17 15:58N 51°58' E 003°59'0 0.0
2017-Apr-17 15:28N 51°58' E 003°59'0 0.0
2017-Apr-17 14:55N 51°58' E 003°59'0 0.0
2017-Apr-17 13:58N 51°58' E 003°59'0 0.0
2017-Apr-17 13:25N 51°58' E 003°59'0 0.0
2017-Apr-17 12:58N 51°58' E 003°59'0 0.0
2017-Apr-17 12:28N 51°58' E 003°59'0 0.0
2017-Apr-17 11:58N 51°58' E 003°59'0 0.0
2017-Apr-17 11:28N 51°58' E 003°59'0 0.0
2017-Apr-17 10:55N 51°58' E 003°59'0 0.0
2017-Apr-17 10:28N 51°58' E 003°59'0 0.0
2017-Apr-17 09:55N 51°58' E 003°59'0 0.0
2017-Apr-17 09:28N 51°58' E 003°59'0 0.0
2017-Apr-17 08:58N 51°58' E 003°59'0 0.0
2017-Apr-17 08:28N 51°58' E 003°59'0 0.0
2017-Apr-17 07:52N 51°58' E 003°59'0 0.0
2017-Apr-17 07:28N 51°58' E 003°59'0 0.0
2017-Apr-17 06:58N 51°58' E 003°59'0 0.0
2017-Apr-17 06:28N 51°58' E 003°59'0 0.0
2017-Apr-17 05:58N 51°58' E 003°59'0 0.0
2017-Apr-17 05:28N 51°58' E 003°59'0 0.0
2017-Apr-17 04:58N 51°58' E 003°59'0 0.0
2017-Apr-17 04:25N 51°58' E 003°59'0 0.0
2017-Apr-17 03:58N 51°58' E 003°59'0 0.0
2017-Apr-17 03:25N 51°58' E 003°59'0 0.0
2017-Apr-17 02:58N 51°58' E 003°59'  

Dump ship's entire track history